createdAt,value
2022-09-22T00:00:32.862Z,77.26
2022-09-22T00:03:05.191Z,76.76
2022-09-22T00:05:35.143Z,76.13
2022-09-22T00:08:05.363Z,76.38
2022-09-22T00:10:35.017Z,76.72
2022-09-22T00:13:04.715Z,77.64
2022-09-22T00:15:35.026Z,77.57
2022-09-22T00:18:07.301Z,77.41
2022-09-22T00:20:36.976Z,76.76
2022-09-22T00:23:06.624Z,76.93
2022-09-22T00:25:36.318Z,77.39
2022-09-22T00:28:06.017Z,76.87
2022-09-22T00:30:35.835Z,76.94
2022-09-22T00:33:08.070Z,76.58
2022-09-22T00:35:38.564Z,76.37
2022-09-22T00:38:08.803Z,76.92
2022-09-22T00:40:39.959Z,76.73
2022-09-22T00:43:19.270Z,76.57
2022-09-22T00:45:52.021Z,76.35
2022-09-22T00:48:29.797Z,76.14
2022-09-22T00:51:02.187Z,76.56
2022-09-22T00:53:32.417Z,76.92
2022-09-22T00:56:06.610Z,77.03
2022-09-22T00:58:41.012Z,76.89
2022-09-22T01:01:11.001Z,76.92
2022-09-22T01:03:44.031Z,77.33
2022-09-22T01:06:18.023Z,77.08
2022-09-22T01:08:48.887Z,77.64
2022-09-22T01:11:20.927Z,77.27
2022-09-22T01:13:58.072Z,76.99
2022-09-22T01:16:43.073Z,77.10
2022-09-22T01:19:37.046Z,76.86
2022-09-22T01:22:20.675Z,77.61
2022-09-22T01:25:10.007Z,77.55
2022-09-22T01:28:08.657Z,78.52
2022-09-22T01:30:47.502Z,78.12
2022-09-22T01:33:38.370Z,78.79
2022-09-22T01:36:27.679Z,77.93
2022-09-22T01:39:08.304Z,78.59
2022-09-22T01:41:53.010Z,78.90
2022-09-22T01:44:30.274Z,77.95
2022-09-22T01:47:08.212Z,78.00
2022-09-22T01:49:43.743Z,79.30
2022-09-22T01:52:20.932Z,78.11
2022-09-22T01:54:57.201Z,77.82
2022-09-22T01:57:33.735Z,77.90
2022-09-22T02:00:07.754Z,77.08
2022-09-22T02:02:45.315Z,77.54
2022-09-22T02:05:20.099Z,77.26
2022-09-22T02:07:54.260Z,77.42
2022-09-22T02:10:28.603Z,77.09
2022-09-22T02:12:58.275Z,77.55
2022-09-22T02:15:40.473Z,78.94
2022-09-22T02:18:17.673Z,79.89
2022-09-22T02:20:47.942Z,80.31
2022-09-22T02:23:17.707Z,81.91
2022-09-22T02:25:48.958Z,79.62
2022-09-22T02:28:21.644Z,79.57
2022-09-22T02:31:17.875Z,80.77
2022-09-22T02:33:47.658Z,82.96
2022-09-22T02:36:36.777Z,81.04
2022-09-22T02:39:11.961Z,82.55
2022-09-22T02:41:53.007Z,81.44
2022-09-22T02:44:26.836Z,81.65
2022-09-22T02:47:02.582Z,79.93
2022-09-22T02:49:36.217Z,79.59
2022-09-22T02:52:11.905Z,80.01
2022-09-22T02:54:41.844Z,79.77
2022-09-22T02:57:13.160Z,79.20
2022-09-22T02:59:42.846Z,78.53
2022-09-22T03:02:15.598Z,78.71
2022-09-22T03:04:47.914Z,78.05
2022-09-22T03:07:17.622Z,78.23
2022-09-22T03:09:47.382Z,77.51
2022-09-22T03:12:17.218Z,77.40
2022-09-22T03:14:46.967Z,77.47
2022-09-22T03:17:16.580Z,77.23
2022-09-22T03:19:48.989Z,77.58
2022-09-22T03:22:18.701Z,77.11
2022-09-22T03:24:48.560Z,77.16
2022-09-22T03:27:18.252Z,77.59
2022-09-22T03:29:47.877Z,77.12
2022-09-22T03:32:17.608Z,76.94
2022-09-22T03:34:49.812Z,77.15
2022-09-22T03:37:20.156Z,77.19
2022-09-22T03:39:49.785Z,77.28
2022-09-22T03:42:19.813Z,76.96
2022-09-22T03:44:49.509Z,77.02
2022-09-22T03:47:20.051Z,77.07
2022-09-22T03:49:52.377Z,77.10
2022-09-22T03:52:22.105Z,77.11
2022-09-22T03:54:52.333Z,77.25
2022-09-22T03:57:22.037Z,77.09
2022-09-22T03:59:52.549Z,76.77
2022-09-22T04:02:22.298Z,77.07
2022-09-22T04:04:54.644Z,77.22
2022-09-22T04:07:24.368Z,77.32
2022-09-22T04:09:54.914Z,77.08
2022-09-22T04:12:24.656Z,77.36
2022-09-22T04:14:54.339Z,77.08
2022-09-22T04:17:23.990Z,77.01
2022-09-22T04:19:56.817Z,76.60
2022-09-22T04:22:26.499Z,77.01
2022-09-22T04:24:56.233Z,77.17
2022-09-22T04:27:26.490Z,77.14
2022-09-22T04:29:56.183Z,77.12
2022-09-22T04:32:25.911Z,77.67
2022-09-22T04:34:58.162Z,77.47
2022-09-22T04:37:27.805Z,77.19
2022-09-22T04:39:57.503Z,76.97
2022-09-22T04:42:27.217Z,76.91
2022-09-22T04:45:02.137Z,77.36
2022-09-22T04:47:32.491Z,77.58
2022-09-22T04:50:04.886Z,77.14
2022-09-22T04:52:34.670Z,77.12
2022-09-22T04:55:04.425Z,76.52
2022-09-22T04:57:34.209Z,76.97
2022-09-22T05:00:04.318Z,77.56
2022-09-22T05:02:34.276Z,78.04
2022-09-22T05:05:08.461Z,77.66
2022-09-22T05:07:38.178Z,78.28
2022-09-22T05:10:09.133Z,78.18
2022-09-22T05:12:41.969Z,78.04
2022-09-22T05:15:14.183Z,78.88
2022-09-22T05:17:49.042Z,78.07
2022-09-22T05:20:22.647Z,77.62
2022-09-22T05:22:52.649Z,77.65
2022-09-22T05:25:23.198Z,77.71
2022-09-22T05:27:54.833Z,78.54
2022-09-22T05:30:26.877Z,77.77
2022-09-22T05:32:56.876Z,77.24
2022-09-22T05:35:34.328Z,77.16
2022-09-22T05:38:06.303Z,77.56
2022-09-22T05:40:36.253Z,77.31
2022-09-22T05:43:06.054Z,78.37
2022-09-22T05:45:35.864Z,78.47
2022-09-22T05:48:05.509Z,78.48
2022-09-22T05:50:38.132Z,78.84
2022-09-22T05:53:09.467Z,79.85
2022-09-22T05:55:40.833Z,79.35
2022-09-22T05:58:12.098Z,80.44
2022-09-22T06:00:42.235Z,80.96
2022-09-22T06:03:12.061Z,80.35
2022-09-22T06:05:44.423Z,80.78
2022-09-22T06:08:14.108Z,79.23
2022-09-22T06:10:45.344Z,80.79
2022-09-22T06:13:15.283Z,82.31
2022-09-22T06:15:49.066Z,82.75
2022-09-22T06:18:24.402Z,82.11
2022-09-22T06:20:57.423Z,80.44
2022-09-22T06:23:28.671Z,80.59
2022-09-22T06:26:01.568Z,81.06
2022-09-22T06:28:31.472Z,81.52
2022-09-22T06:31:01.432Z,82.74
2022-09-22T06:33:31.386Z,80.99
2022-09-22T06:36:04.307Z,81.22
2022-09-22T06:38:34.771Z,81.31
2022-09-22T06:41:07.009Z,81.28
2022-09-22T06:43:38.151Z,82.77
2022-09-22T06:46:13.798Z,82.89
2022-09-22T06:48:43.605Z,83.42
2022-09-22T06:51:17.853Z,80.65
2022-09-22T06:53:51.795Z,79.73
2022-09-22T06:56:23.735Z,74.42
2022-09-22T06:59:09.529Z,69.78
2022-09-22T07:01:46.294Z,64.91
2022-09-22T07:04:17.908Z,62.89
2022-09-22T07:06:50.505Z,61.02
2022-09-22T07:09:20.257Z,61.89
2022-09-22T07:11:50.384Z,63.20
2022-09-22T07:14:22.537Z,62.36
2022-09-22T07:16:52.645Z,63.61
2022-09-22T07:19:22.402Z,64.48
2022-09-22T07:21:54.690Z,63.43
2022-09-22T07:24:24.496Z,63.06
2022-09-22T07:26:54.122Z,63.02
2022-09-22T07:29:23.916Z,61.10
2022-09-22T07:31:53.911Z,61.75
2022-09-22T07:34:23.650Z,63.60
2022-09-22T07:36:55.993Z,61.97
2022-09-22T07:39:26.052Z,64.71
2022-09-22T07:41:55.690Z,64.19
2022-09-22T07:44:41.007Z,65.74
2022-09-22T07:47:14.013Z,64.83
2022-09-22T07:49:45.102Z,65.41
2022-09-22T07:52:17.513Z,65.91
2022-09-22T07:54:47.224Z,65.63
2022-09-22T07:57:17.007Z,64.94
2022-09-22T07:59:46.858Z,65.91
2022-09-22T08:02:16.847Z,62.75
2022-09-22T08:04:46.638Z,62.37
2022-09-22T08:07:18.968Z,62.06
2022-09-22T08:09:48.755Z,61.09
2022-09-22T08:12:18.469Z,60.73
2022-09-22T08:14:48.157Z,60.28
2022-09-22T08:17:17.981Z,60.33
2022-09-22T08:19:47.771Z,59.07
2022-09-22T08:22:20.642Z,59.36
2022-09-22T08:24:50.337Z,57.55
2022-09-22T08:27:20.232Z,56.98
2022-09-22T08:29:50.134Z,55.77
2022-09-22T08:32:20.035Z,54.91
2022-09-22T08:34:51.559Z,54.08
2022-09-22T08:37:24.367Z,55.32
2022-09-22T08:39:54.060Z,54.90
2022-09-22T08:42:25.651Z,55.19
2022-09-22T08:45:02.963Z,55.12
2022-09-22T08:47:51.168Z,53.29
2022-09-22T08:50:42.276Z,52.56
2022-09-22T08:53:19.313Z,52.34
2022-09-22T08:55:53.704Z,52.31
2022-09-22T08:58:37.376Z,52.46
2022-09-22T09:01:19.716Z,50.43
2022-09-22T09:03:58.507Z,51.46
2022-09-22T09:06:38.204Z,50.78
2022-09-22T09:09:28.305Z,50.27
2022-09-22T09:12:09.512Z,50.17
2022-09-22T09:14:55.606Z,50.42
2022-09-22T09:17:29.077Z,49.94
2022-09-22T09:20:04.770Z,49.28
2022-09-22T09:22:43.699Z,49.65
2022-09-22T09:25:25.205Z,50.39
2022-09-22T09:28:00.895Z,49.88
2022-09-22T09:30:39.648Z,49.22
2022-09-22T09:33:19.956Z,49.70
2022-09-22T09:35:53.163Z,49.00
2022-09-22T09:38:30.376Z,48.57
2022-09-22T09:41:15.600Z,47.43
2022-09-22T09:43:45.864Z,48.16
2022-09-22T09:46:24.912Z,47.89
2022-09-22T09:49:09.081Z,47.96
2022-09-22T09:51:42.448Z,47.65
2022-09-22T09:54:17.487Z,46.63
2022-09-22T09:57:09.236Z,47.12
2022-09-22T09:59:52.614Z,46.98
2022-09-22T10:02:25.505Z,46.75
2022-09-22T10:04:58.738Z,47.30
2022-09-22T10:10:36.462Z,48.00
2022-09-22T10:13:41.759Z,46.61
2022-09-22T10:16:36.272Z,44.93
2022-09-22T10:19:22.149Z,46.21
2022-09-22T10:21:52.422Z,45.21
2022-09-22T10:24:34.716Z,44.85
2022-09-22T10:27:07.510Z,44.58
2022-09-22T10:29:42.275Z,44.60
2022-09-22T10:32:19.435Z,44.63
2022-09-22T10:34:51.214Z,42.60
2022-09-22T10:37:27.373Z,42.67
2022-09-22T10:40:02.810Z,42.01
2022-09-22T10:42:37.443Z,41.89
2022-09-22T10:45:10.379Z,41.53
2022-09-22T10:48:00.460Z,40.06
2022-09-22T10:50:54.963Z,39.71
2022-09-22T10:53:37.845Z,39.75
2022-09-22T10:56:17.115Z,39.53
2022-09-22T10:59:05.511Z,38.78
2022-09-22T11:01:52.496Z,37.91
2022-09-22T11:04:37.329Z,38.22
2022-09-22T11:07:33.629Z,39.40
2022-09-22T11:10:37.366Z,39.07
2022-09-22T11:13:18.565Z,38.77
2022-09-22T11:16:05.000Z,37.78
2022-09-22T11:18:49.384Z,39.35
2022-09-22T11:21:32.906Z,38.13
2022-09-22T11:24:17.581Z,38.30
2022-09-22T11:26:52.031Z,37.80
2022-09-22T11:29:53.734Z,37.79
2022-09-22T11:32:47.394Z,38.68
2022-09-22T11:35:47.243Z,36.48
2022-09-22T11:38:45.299Z,35.36
2022-09-22T11:41:29.813Z,36.24
2022-09-22T11:44:16.407Z,37.13
2022-09-22T11:47:01.534Z,37.56
2022-09-22T11:49:42.675Z,36.50
2022-09-22T11:52:24.412Z,36.36
2022-09-22T11:55:08.339Z,37.24
2022-09-22T11:57:42.957Z,37.01
2022-09-22T12:00:17.658Z,36.76
2022-09-22T12:02:52.211Z,37.01
2022-09-22T12:05:27.448Z,37.42
2022-09-22T12:08:03.507Z,37.12
2022-09-22T12:10:40.044Z,37.67
2022-09-22T12:13:15.465Z,37.56
2022-09-22T12:15:53.359Z,37.52
2022-09-22T12:18:32.445Z,36.95
2022-09-22T12:21:07.643Z,38.06
2022-09-22T12:23:45.155Z,37.09
2022-09-22T12:26:30.274Z,37.13
2022-09-22T12:29:01.387Z,37.47
2022-09-22T12:31:40.179Z,38.25
2022-09-22T12:34:20.775Z,39.14
2022-09-22T12:36:54.950Z,39.01
2022-09-22T12:39:27.491Z,38.50
2022-09-22T12:42:04.075Z,39.00
2022-09-22T12:44:37.863Z,38.87
2022-09-22T12:47:11.125Z,38.44
2022-09-22T12:49:50.939Z,38.88
2022-09-22T12:52:40.055Z,39.05
2022-09-22T12:55:22.186Z,38.42
2022-09-22T12:57:55.019Z,38.05
2022-09-22T13:00:36.252Z,37.82
2022-09-22T13:03:52.214Z,38.21
2022-09-22T13:06:55.776Z,38.13
2022-09-22T13:09:30.179Z,38.16
2022-09-22T13:12:38.400Z,38.04
2022-09-22T13:15:32.116Z,37.43
2022-09-22T13:18:01.886Z,36.97
2022-09-22T13:20:35.223Z,38.15
2022-09-22T13:23:08.368Z,38.64
2022-09-22T13:25:38.194Z,38.25
2022-09-22T13:28:17.619Z,37.48
2022-09-22T13:31:03.383Z,38.00
2022-09-22T13:33:38.102Z,37.77
2022-09-22T13:36:11.164Z,38.13
2022-09-22T13:38:43.931Z,38.03
2022-09-22T13:41:15.098Z,38.71
2022-09-22T13:43:48.368Z,38.10
2022-09-22T13:46:27.518Z,38.34
2022-09-22T13:49:00.105Z,37.57
2022-09-22T13:51:29.992Z,37.97
2022-09-22T13:54:00.436Z,37.65
2022-09-22T13:56:30.729Z,38.78
2022-09-22T13:59:03.040Z,38.25
2022-09-22T14:01:36.017Z,39.34
2022-09-22T14:04:06.057Z,39.67
2022-09-22T14:06:37.161Z,39.45
2022-09-22T14:09:07.445Z,38.28
2022-09-22T14:11:39.973Z,39.42
2022-09-22T14:14:23.760Z,39.31
2022-09-22T14:17:00.296Z,39.38
2022-09-22T14:19:34.157Z,38.00
2022-09-22T14:22:07.044Z,38.48
2022-09-22T14:24:38.310Z,39.40
2022-09-22T14:27:10.629Z,39.89
2022-09-22T14:29:42.374Z,39.21
2022-09-22T14:32:22.785Z,38.61
2022-09-22T14:34:56.521Z,38.97
2022-09-22T14:37:32.425Z,39.13
2022-09-22T14:40:05.581Z,38.97
2022-09-22T14:42:36.212Z,40.00
2022-09-22T14:45:21.935Z,39.58
2022-09-22T14:48:18.098Z,39.18
2022-09-22T14:50:49.466Z,39.25
2022-09-22T14:53:23.239Z,39.42
2022-09-22T14:55:55.001Z,39.09
2022-09-22T14:58:27.228Z,39.38
2022-09-22T15:01:11.601Z,39.46
2022-09-22T15:03:46.609Z,38.94
2022-09-22T15:06:17.695Z,39.38
2022-09-22T15:08:53.082Z,39.62
2022-09-22T15:11:22.992Z,39.82
2022-09-22T15:13:53.651Z,39.28
2022-09-22T15:16:39.424Z,39.94
2022-09-22T15:19:14.128Z,40.22
2022-09-22T15:21:49.108Z,40.52
2022-09-22T15:24:26.328Z,40.75
2022-09-22T15:27:00.273Z,40.71
2022-09-22T15:29:32.502Z,41.09
2022-09-22T15:32:04.420Z,40.46
2022-09-22T15:34:38.344Z,40.53
2022-09-22T15:37:08.243Z,40.55
2022-09-22T15:39:37.984Z,41.15
2022-09-22T15:42:10.333Z,40.91
2022-09-22T15:44:40.616Z,41.66
2022-09-22T15:47:16.774Z,41.31
2022-09-22T15:49:51.313Z,41.71
2022-09-22T15:52:21.376Z,42.30
2022-09-22T15:54:51.249Z,43.05
2022-09-22T15:57:20.962Z,42.67
2022-09-22T15:59:52.427Z,42.75
2022-09-22T16:02:22.348Z,42.64
2022-09-22T16:04:55.766Z,42.78
2022-09-22T16:07:25.550Z,42.77
2022-09-22T16:09:55.378Z,42.69
2022-09-22T16:12:25.651Z,43.31
2022-09-22T16:14:55.329Z,43.13
2022-09-22T16:17:25.309Z,43.78
2022-09-22T16:19:58.839Z,43.88
2022-09-22T16:22:28.973Z,43.69
2022-09-22T16:24:58.630Z,43.99
2022-09-22T16:27:30.055Z,43.88
2022-09-22T16:29:59.968Z,44.23
2022-09-22T16:32:30.858Z,44.40
2022-09-22T16:35:03.153Z,44.68
2022-09-22T16:37:32.913Z,45.63
2022-09-22T16:40:02.939Z,45.38
2022-09-22T16:42:32.669Z,44.78
2022-09-22T16:45:04.029Z,44.70
2022-09-22T16:47:33.667Z,45.01
2022-09-22T16:50:07.576Z,45.20
2022-09-22T16:52:37.641Z,44.89
2022-09-22T16:55:08.218Z,45.48
2022-09-22T16:57:37.847Z,46.03
2022-09-22T17:00:09.797Z,47.86
2022-09-22T17:02:39.745Z,47.81
2022-09-22T17:05:13.049Z,46.72
2022-09-22T17:07:46.346Z,48.60
2022-09-22T17:10:16.402Z,50.83
2022-09-22T17:12:46.074Z,51.62
2022-09-22T17:15:16.701Z,52.50
2022-09-22T17:17:46.499Z,52.49
2022-09-22T17:20:18.871Z,53.41
2022-09-22T17:22:48.818Z,53.55
2022-09-22T17:25:19.014Z,54.83
2022-09-22T17:27:49.136Z,54.73
2022-09-22T17:30:19.124Z,55.31
2022-09-22T17:32:49.067Z,55.92
2022-09-22T17:35:21.385Z,56.61
2022-09-22T17:37:53.564Z,56.59
2022-09-22T17:40:23.352Z,56.82
2022-09-22T17:42:53.016Z,57.01
2022-09-22T17:45:23.029Z,57.15
2022-09-22T17:48:05.133Z,57.51
2022-09-22T17:50:49.921Z,58.68
2022-09-22T17:53:32.058Z,59.33
2022-09-22T17:56:05.263Z,59.65
2022-09-22T17:58:35.237Z,59.19
2022-09-22T18:01:05.192Z,59.74
2022-09-22T18:03:35.653Z,59.52
2022-09-22T18:06:15.020Z,60.36
2022-09-22T18:08:45.453Z,60.37
2022-09-22T18:11:15.623Z,60.58
2022-09-22T18:13:45.260Z,60.78
2022-09-22T18:16:22.999Z,60.47
2022-09-22T18:18:52.723Z,61.26
2022-09-22T18:21:25.171Z,61.21
2022-09-22T18:23:54.828Z,61.16
2022-09-22T18:26:27.748Z,60.45
2022-09-22T18:28:58.044Z,60.38
2022-09-22T18:31:28.471Z,59.86
2022-09-22T18:33:58.417Z,58.98
2022-09-22T18:36:30.879Z,60.03
2022-09-22T18:39:00.786Z,59.49
2022-09-22T18:41:32.133Z,60.03
2022-09-22T18:44:04.762Z,59.93
2022-09-22T18:46:36.524Z,60.27
2022-09-22T18:49:09.539Z,60.35
2022-09-22T18:51:45.233Z,59.30
2022-09-22T18:54:15.570Z,60.01
2022-09-22T18:56:47.916Z,59.35
2022-09-22T18:59:19.815Z,59.72
2022-09-22T19:01:50.350Z,59.03
2022-09-22T19:04:22.667Z,58.97
2022-09-22T19:07:09.217Z,59.15
2022-09-22T19:09:39.338Z,59.77
2022-09-22T19:12:10.794Z,59.58
2022-09-22T19:14:42.285Z,60.32
2022-09-22T19:17:13.507Z,61.73
2022-09-22T19:19:46.040Z,61.36
2022-09-22T19:22:19.354Z,60.54
2022-09-22T19:24:49.128Z,61.20
2022-09-22T19:27:22.907Z,60.92
2022-09-22T19:29:52.782Z,61.55
2022-09-22T19:32:22.432Z,61.14
2022-09-22T19:34:54.939Z,61.75
2022-09-22T19:37:29.366Z,61.90
2022-09-22T19:39:59.290Z,62.13
2022-09-22T19:42:28.971Z,61.94
2022-09-22T19:44:59.385Z,61.68
2022-09-22T19:47:29.219Z,62.15
2022-09-22T19:49:59.423Z,62.07
2022-09-22T19:52:31.774Z,62.24
2022-09-22T19:55:01.566Z,62.14
2022-09-22T19:57:31.955Z,62.26
2022-09-22T20:00:01.894Z,62.90
2022-09-22T20:02:31.704Z,63.39
2022-09-22T20:05:01.313Z,63.39
2022-09-22T20:07:33.728Z,63.73
2022-09-22T20:10:03.350Z,63.52
2022-09-22T20:12:33.094Z,63.49
2022-09-22T20:15:02.837Z,63.62
2022-09-22T20:17:32.544Z,64.54
2022-09-22T20:20:02.277Z,64.73
2022-09-22T20:22:38.378Z,64.24
2022-09-22T20:25:09.054Z,64.75
2022-09-22T20:27:40.213Z,63.24
2022-09-22T20:30:11.346Z,64.59
2022-09-22T20:32:41.154Z,64.45
2022-09-22T20:35:13.541Z,64.20
2022-09-22T20:37:46.741Z,63.82
2022-09-22T20:40:18.721Z,64.03
2022-09-22T20:42:49.135Z,64.64
2022-09-22T20:45:21.009Z,65.30
2022-09-22T20:47:51.048Z,65.38
2022-09-22T20:50:21.326Z,65.32
2022-09-22T20:52:53.816Z,65.48
2022-09-22T20:55:23.491Z,65.91
2022-09-22T20:57:53.220Z,66.48
2022-09-22T21:00:23.042Z,66.38
2022-09-22T21:02:53.709Z,65.88
2022-09-22T21:05:23.466Z,65.65
2022-09-22T21:08:15.870Z,66.57
2022-09-22T21:10:42.955Z,67.70
2022-09-22T21:13:12.620Z,68.60
2022-09-22T21:15:42.397Z,68.33
2022-09-22T21:18:12.084Z,67.38
2022-09-22T21:20:43.163Z,67.68
2022-09-22T21:23:15.424Z,67.89
2022-09-22T21:25:45.169Z,68.42
2022-09-22T21:28:14.843Z,67.79
2022-09-22T21:30:44.585Z,68.74
2022-09-22T21:33:14.333Z,67.80
2022-09-22T21:35:43.984Z,68.15
2022-09-22T21:38:16.281Z,69.00
2022-09-22T21:40:45.931Z,69.11
2022-09-22T21:43:15.668Z,69.97
2022-09-22T21:45:45.456Z,69.32
2022-09-22T21:48:15.166Z,69.91
2022-09-22T21:50:44.845Z,69.72
2022-09-22T21:53:17.090Z,69.79
2022-09-22T21:55:46.783Z,68.97
2022-09-22T21:58:16.545Z,69.19
2022-09-22T22:00:52.128Z,69.63
2022-09-22T22:03:34.379Z,69.19
2022-09-22T22:06:06.052Z,68.58
2022-09-22T22:08:42.643Z,69.61
2022-09-22T22:11:14.464Z,69.42
2022-09-22T22:13:45.395Z,68.91
2022-09-22T22:16:15.558Z,69.03
2022-09-22T22:18:45.563Z,69.15
2022-09-22T22:21:17.345Z,69.56
2022-09-22T22:23:51.543Z,70.47
2022-09-22T22:26:23.697Z,70.29
2022-09-22T22:28:54.805Z,70.15
2022-09-22T22:31:26.340Z,70.41
2022-09-22T22:33:56.883Z,70.29
2022-09-22T22:36:26.615Z,70.88
2022-09-22T22:38:58.995Z,71.47
2022-09-22T22:41:30.577Z,70.77
2022-09-22T22:44:01.991Z,72.04
2022-09-22T22:46:32.422Z,71.98
2022-09-22T22:49:02.441Z,72.46
2022-09-22T22:51:32.276Z,72.08
2022-09-22T22:54:05.012Z,71.78
2022-09-22T22:56:35.113Z,71.09
2022-09-22T22:59:04.913Z,70.27
2022-09-22T23:01:35.405Z,70.66
2022-09-22T23:04:06.927Z,71.93
2022-09-22T23:06:39.110Z,71.52
2022-09-22T23:09:15.107Z,72.09
2022-09-22T23:11:46.615Z,71.17
2022-09-22T23:14:17.172Z,72.66
2022-09-22T23:16:49.644Z,72.28
2022-09-22T23:19:20.886Z,72.14
2022-09-22T23:21:51.616Z,71.58
2022-09-22T23:24:23.995Z,72.41
2022-09-22T23:26:54.530Z,71.62
2022-09-22T23:29:24.207Z,72.46
2022-09-22T23:31:53.862Z,72.04
2022-09-22T23:34:24.719Z,72.51
2022-09-22T23:36:54.383Z,72.80
2022-09-22T23:39:26.977Z,72.85
2022-09-22T23:41:56.690Z,71.56
2022-09-22T23:44:26.429Z,71.80
2022-09-22T23:46:56.405Z,71.51
2022-09-22T23:49:26.051Z,71.83
2022-09-22T23:51:55.757Z,72.55
2022-09-22T23:54:28.238Z,73.35
2022-09-22T23:56:57.956Z,72.09
2022-09-22T23:59:27.633Z,71.82
